createdAt,value
2023-10-12T00:00:00.863Z,19.31
2023-10-12T00:05:00.326Z,19.25
2023-10-12T00:10:00.184Z,19.19
2023-10-12T00:15:00.159Z,19.19
2023-10-12T00:20:00.221Z,19.19
2023-10-12T00:25:00.214Z,19.19
2023-10-12T00:30:00.187Z,19.06
2023-10-12T00:35:00.150Z,18.94
2023-10-12T00:40:00.199Z,18.81
2023-10-12T00:45:00.205Z,18.69
2023-10-12T00:50:00.191Z,18.56
2023-10-12T00:55:00.218Z,18.5
2023-10-12T01:00:00.228Z,18.44
2023-10-12T01:05:00.247Z,18.44
2023-10-12T01:10:00.179Z,18.38
2023-10-12T01:15:00.179Z,18.38
2023-10-12T01:20:00.179Z,18.31
2023-10-12T01:25:00.266Z,18.31
2023-10-12T01:30:01.127Z,18.31
2023-10-12T01:35:00.178Z,18.25
2023-10-12T01:40:00.174Z,18.38
2023-10-12T01:45:00.168Z,18.44
2023-10-12T01:50:00.137Z,18.63
2023-10-12T01:55:00.199Z,18.69
2023-10-12T02:00:00.308Z,18.88
2023-10-12T02:05:00.270Z,18.94
2023-10-12T02:10:00.232Z,18.94
2023-10-12T02:15:00.159Z,18.94
2023-10-12T02:20:00.112Z,19
2023-10-12T02:25:00.235Z,19
2023-10-12T02:30:00.191Z,19.06
2023-10-12T02:35:00.205Z,19.06
2023-10-12T02:40:00.280Z,19.19
2023-10-12T02:45:00.209Z,19.19
2023-10-12T02:50:00.173Z,19.19
2023-10-12T02:55:00.170Z,19.19
2023-10-12T03:00:00.230Z,19.13
2023-10-12T03:05:00.437Z,19.13
2023-10-12T03:10:00.248Z,19
2023-10-12T03:15:00.177Z,19
2023-10-12T03:20:00.167Z,19
2023-10-12T03:25:00.253Z,19
2023-10-12T03:30:00.161Z,18.94
2023-10-12T03:35:00.148Z,18.94
2023-10-12T03:40:00.539Z,18.88
2023-10-12T03:45:00.183Z,18.88
2023-10-12T03:50:00.158Z,18.94
2023-10-12T03:55:00.269Z,18.88
2023-10-12T04:00:00.279Z,18.94
2023-10-12T04:05:00.199Z,18.88
2023-10-12T04:10:00.227Z,18.88
2023-10-12T04:15:00.148Z,18.88
2023-10-12T04:20:00.153Z,18.88
2023-10-12T04:25:00.207Z,18.88
2023-10-12T04:30:00.308Z,18.88
2023-10-12T04:35:01.667Z,18.88
2023-10-12T04:40:00.188Z,18.88
2023-10-12T04:45:00.154Z,18.88
2023-10-12T04:50:00.118Z,18.81
2023-10-12T04:55:00.221Z,18.81
2023-10-12T05:00:00.288Z,18.81
2023-10-12T05:05:00.363Z,18.81
2023-10-12T05:10:00.200Z,18.75
2023-10-12T05:15:00.148Z,18.69
2023-10-12T05:20:00.122Z,18.56
2023-10-12T05:25:00.291Z,18.31
2023-10-12T05:30:00.234Z,17.94
2023-10-12T05:35:00.248Z,17.63
2023-10-12T05:40:00.214Z,17.25
2023-10-12T05:45:00.168Z,17
2023-10-12T05:50:00.211Z,16.75
2023-10-12T05:55:00.223Z,16.63
2023-10-12T06:00:00.201Z,16.56
2023-10-12T06:05:00.316Z,16.56
2023-10-12T06:10:00.284Z,16.56
2023-10-12T06:15:00.175Z,16.5
2023-10-12T06:20:00.154Z,16.44
2023-10-12T06:25:00.274Z,16.44
2023-10-12T06:30:00.219Z,16.38
2023-10-12T06:35:00.345Z,16.31
2023-10-12T06:40:00.192Z,16.25
2023-10-12T06:45:00.215Z,16.19
2023-10-12T06:50:00.177Z,16.13
2023-10-12T07:00:00.313Z,16
2023-10-12T07:05:00.464Z,16
2023-10-12T07:10:00.324Z,16
2023-10-12T07:15:00.156Z,15.94
2023-10-12T07:20:00.225Z,15.94
2023-10-12T07:25:00.275Z,15.94
2023-10-12T07:30:00.233Z,15.88
2023-10-12T07:35:00.485Z,15.81
2023-10-12T07:40:00.306Z,15.81
2023-10-12T07:45:00.238Z,15.75
2023-10-12T07:50:00.175Z,15.81
2023-10-12T07:55:00.191Z,15.81
2023-10-12T08:00:00.223Z,15.81
2023-10-12T08:05:00.253Z,15.88
2023-10-12T08:10:00.213Z,15.81
2023-10-12T08:15:00.155Z,15.88
2023-10-12T08:20:00.166Z,15.88
2023-10-12T08:25:00.523Z,15.94
2023-10-12T08:30:00.289Z,15.94
2023-10-12T08:35:00.229Z,15.88
2023-10-12T08:40:00.201Z,15.88
2023-10-12T08:45:00.202Z,15.88
2023-10-12T08:50:00.214Z,15.94
2023-10-12T08:55:00.215Z,16
2023-10-12T09:00:00.208Z,16.06
2023-10-12T09:05:00.299Z,16.13
2023-10-12T09:10:00.257Z,16.19
2023-10-12T09:15:00.201Z,16.19
2023-10-12T09:20:00.151Z,16.13
2023-10-12T09:25:00.249Z,16.13
2023-10-12T09:30:00.146Z,16.13
2023-10-12T09:35:00.155Z,16.06
2023-10-12T09:45:00.159Z,16.06
2023-10-12T09:50:00.141Z,16.06
2023-10-12T09:55:00.259Z,16
2023-10-12T10:00:00.283Z,16
2023-10-12T10:05:00.207Z,16.06
2023-10-12T10:10:00.286Z,16.06
2023-10-12T10:15:00.163Z,16.06
2023-10-12T10:20:00.111Z,16.13
2023-10-12T10:25:00.208Z,16.06
2023-10-12T10:30:00.164Z,16.06
2023-10-12T10:35:00.204Z,16
2023-10-12T10:40:00.224Z,15.94
2023-10-12T10:45:01.213Z,15.88
2023-10-12T10:50:00.365Z,15.81
2023-10-12T10:55:00.221Z,15.75
2023-10-12T11:00:00.273Z,15.69
2023-10-12T11:05:00.192Z,15.69
2023-10-12T11:10:00.275Z,15.69
2023-10-12T11:15:00.139Z,15.69
2023-10-12T11:20:01.135Z,15.75
2023-10-12T11:25:00.225Z,15.75
2023-10-12T11:30:00.182Z,15.75
2023-10-12T11:35:00.107Z,15.81
2023-10-12T11:40:00.237Z,15.94
2023-10-12T11:45:00.150Z,15.94
2023-10-12T11:50:00.370Z,16
2023-10-12T11:55:00.206Z,16.13
2023-10-12T12:00:00.250Z,16.25
2023-10-12T12:05:08.706Z,16.31
2023-10-12T12:10:00.215Z,16.31
2023-10-12T12:15:00.132Z,16.25
2023-10-12T12:20:00.182Z,16.19
2023-10-12T12:25:00.231Z,16.13
2023-10-12T12:30:14.187Z,16.13
2023-10-12T12:35:00.166Z,16.19
2023-10-12T12:40:00.171Z,16.25
2023-10-12T12:45:00.169Z,16.31
2023-10-12T12:50:00.131Z,16.38
2023-10-12T12:55:00.170Z,16.44
2023-10-12T13:00:00.217Z,16.5
2023-10-12T13:05:00.324Z,16.56
2023-10-12T13:10:00.241Z,16.69
2023-10-12T13:15:00.160Z,16.75
2023-10-12T13:20:00.160Z,16.63
2023-10-12T13:25:00.203Z,16.5
2023-10-12T13:30:00.204Z,16.44
2023-10-12T13:35:00.144Z,16.31
2023-10-12T13:40:00.217Z,16.31
2023-10-12T13:45:00.148Z,16.44
2023-10-12T13:50:00.202Z,16.63
2023-10-12T13:55:00.196Z,16.69
2023-10-12T14:00:00.216Z,16.69
2023-10-12T14:05:00.673Z,16.69
2023-10-12T14:10:00.236Z,16.88
2023-10-12T14:15:00.164Z,17
2023-10-12T14:20:00.253Z,16.94
2023-10-12T14:25:00.266Z,16.81
2023-10-12T14:30:00.300Z,16.81
2023-10-12T14:35:00.157Z,16.88
2023-10-12T14:40:00.229Z,16.88
2023-10-12T14:45:00.189Z,16.88
2023-10-12T14:50:00.174Z,16.88
2023-10-12T14:55:00.187Z,16.88
2023-10-12T15:00:00.297Z,16.88
2023-10-12T15:05:00.143Z,16.94
2023-10-12T15:10:00.186Z,16.94
2023-10-12T15:15:00.125Z,16.94
2023-10-12T15:20:00.254Z,16.81
2023-10-12T15:25:00.252Z,16.69
2023-10-12T15:30:00.200Z,16.56
2023-10-12T15:35:00.140Z,16.5
2023-10-12T15:40:00.195Z,16.44
2023-10-12T15:45:00.168Z,16.38
2023-10-12T15:50:00.220Z,16.25
2023-10-12T15:55:00.185Z,16.19
2023-10-12T16:00:00.252Z,16.06
2023-10-12T16:05:00.213Z,16
2023-10-12T16:10:00.231Z,15.88
2023-10-12T16:15:00.197Z,15.81
2023-10-12T16:20:00.167Z,15.69
2023-10-12T16:25:00.304Z,15.56
2023-10-12T16:30:01.005Z,15.44
2023-10-12T16:35:00.263Z,15.38
2023-10-12T16:40:00.238Z,15.38
2023-10-12T16:45:00.309Z,15.38
2023-10-12T16:50:00.243Z,15.38
2023-10-12T16:55:00.290Z,15.38
2023-10-12T17:00:00.290Z,15.31
2023-10-12T17:05:00.216Z,15.31
2023-10-12T17:10:00.396Z,15.38
2023-10-12T17:15:00.216Z,15.38
2023-10-12T17:20:00.179Z,15.38
2023-10-12T17:25:00.193Z,15.38
2023-10-12T17:30:00.227Z,15.31
2023-10-12T17:35:00.138Z,15.25
2023-10-12T17:40:00.296Z,15.31
2023-10-12T17:45:00.132Z,15.31
2023-10-12T17:50:00.170Z,15.31
2023-10-12T17:55:00.128Z,15.25
2023-10-12T18:00:00.253Z,15.31
2023-10-12T18:05:00.215Z,15.31
2023-10-12T18:10:00.196Z,15.38
2023-10-12T18:15:00.121Z,15.38
2023-10-12T18:20:00.268Z,15.38
2023-10-12T18:25:00.233Z,15.44
2023-10-12T18:30:00.246Z,15.38
2023-10-12T18:35:00.214Z,15.38
2023-10-12T18:40:00.225Z,15.31
2023-10-12T18:45:00.257Z,15.31
2023-10-12T18:50:10.432Z,15.31
2023-10-12T18:55:00.197Z,15.31
2023-10-12T19:00:00.197Z,15.31
2023-10-12T19:05:00.202Z,15.31
2023-10-12T19:10:00.211Z,15.31
2023-10-12T19:15:00.186Z,15.31
2023-10-12T19:20:00.180Z,15.25
2023-10-12T19:25:00.295Z,15.19
2023-10-12T19:30:00.235Z,15.25
2023-10-12T19:35:00.103Z,15.25
2023-10-12T19:40:00.195Z,15.25
2023-10-12T19:45:00.181Z,15.25
2023-10-12T19:50:00.195Z,15.25
2023-10-12T19:55:00.227Z,15.25
2023-10-12T20:00:00.254Z,15.25
2023-10-12T20:05:00.325Z,15.13
2023-10-12T20:10:00.234Z,15.06
2023-10-12T20:15:00.176Z,15
2023-10-12T20:20:00.236Z,14.94
2023-10-12T20:25:00.232Z,14.94
2023-10-12T20:30:00.302Z,14.94
2023-10-12T20:35:00.133Z,14.88
2023-10-12T20:40:00.222Z,14.88
2023-10-12T20:45:00.220Z,14.81
2023-10-12T20:50:00.148Z,14.81
2023-10-12T20:55:00.271Z,14.75
2023-10-12T21:00:00.263Z,14.81
2023-10-12T21:05:00.251Z,14.75
2023-10-12T21:10:00.285Z,14.75
2023-10-12T21:15:01.814Z,14.75
2023-10-12T21:20:00.194Z,14.69
2023-10-12T21:25:00.206Z,14.69
2023-10-12T21:30:00.329Z,14.63
2023-10-12T21:35:00.539Z,14.63
2023-10-12T21:40:00.223Z,14.56
2023-10-12T21:45:00.190Z,14.56
2023-10-12T21:50:00.147Z,14.5
2023-10-12T21:55:00.232Z,14.5
2023-10-12T22:00:00.266Z,14.5
2023-10-12T22:05:00.234Z,14.5
2023-10-12T22:10:00.215Z,14.5
2023-10-12T22:15:00.150Z,14.44
2023-10-12T22:20:00.154Z,14.31
2023-10-12T22:25:00.233Z,14.25
2023-10-12T22:30:00.238Z,14.31
2023-10-12T22:35:00.129Z,14.38
2023-10-12T22:40:00.271Z,14.38
2023-10-12T22:45:00.135Z,14.38
2023-10-12T22:50:00.153Z,14.44
2023-10-12T22:55:00.151Z,14.5
2023-10-12T23:00:00.292Z,14.5
2023-10-12T23:05:00.226Z,14.56
2023-10-12T23:10:00.243Z,14.56
2023-10-12T23:15:00.156Z,14.63
2023-10-12T23:20:00.270Z,14.69
2023-10-12T23:25:00.207Z,14.75
2023-10-12T23:30:00.261Z,14.75
2023-10-12T23:35:00.146Z,14.75
2023-10-12T23:40:00.253Z,14.75
2023-10-12T23:45:00.165Z,14.81
2023-10-12T23:50:00.393Z,14.81
2023-10-12T23:55:00.186Z,14.88
